Skip Navigation LinksHome page > Weather > Current weather Skip Navigation Links

Current Weather

Central Park, New York

For information only: do not use for flight planning or navigation.
Latest weather
Observation time Monday, December 22, 2014 11:51 AM EST
Local time Monday, December 22, 2014 12:02 PM EST
Flight conditions Instrument Meteorological Conditions
Winds
Wind direction variable
Wind speed 7 mph
Visibility 8 mi.
Sky condition
Ceiling 900 ft. overcast
Cloud layer overcast 900 ft.
Temperature 41°F
Dewpoint 35°F
Altimeter 30.29 in.Hg
Derived measurements
Relative humidity 79%
Wind chill 36°F
Density altitude -1371 ft.
Sea-level pressure 30.27 in.Hg
Remarks
Special weather observation.
Fully automated report.
System requires maintenance.
Automated weather observing station with precipitation discriminator.
METAR KNYC 221651Z AUTO VRB06KT 8SM OVC009 05/02 A3029 RMK AO2 SLP250 T00500017 $ SPUS54 KWBC 221653 SPECI KSHN 221649Z AUTO 00000KT 3SM BR OVC017 02/02 A3032

Settings

Location code

InnerDrive.Weather 4.0.5399.0 Release CLR 4.0.30319.34014
Copyright ©2014 Inner Drive Technology. All rights reserved. Portions Copyright ©1986-2014 David Braverman.

Find weather

Site navigation


Skip Navigation Links

Place info

Page info

PayPal - The safer, easier way to pay online!

Return home.

Copyright ©2014 Inner Drive Technology. Purveyors of fine, hand-crafted computer software. Page printed 2014-12-22T17:02:26 UTC.